sensor_id;sensor_type;location;lat;lon;timestamp;pressure;altitude;pressure_sealevel;temperature;humidity
77869;BME280;67231;59.144;37.934;2023-06-24T00:02:25;99946.28;;;12.97;72.64
77869;BME280;67231;59.144;37.934;2023-06-24T00:04:51;99948.25;;;12.95;72.80
77869;BME280;67231;59.144;37.934;2023-06-24T00:07:19;99946.78;;;12.92;72.80
77869;BME280;67231;59.144;37.934;2023-06-24T00:09:48;99949.63;;;12.91;72.81
77869;BME280;67231;59.144;37.934;2023-06-24T00:12:15;99944.47;;;12.89;73.14
77869;BME280;67231;59.144;37.934;2023-06-24T00:14:50;99958.75;;;12.88;73.07
77869;BME280;67231;59.144;37.934;2023-06-24T00:17:16;99956.09;;;12.88;72.97
77869;BME280;67231;59.144;37.934;2023-06-24T00:19:43;99954.09;;;12.90;73.39
77869;BME280;67231;59.144;37.934;2023-06-24T00:22:10;99950.44;;;12.91;73.16
77869;BME280;67231;59.144;37.934;2023-06-24T00:24:37;99956.59;;;12.92;73.16
77869;BME280;67231;59.144;37.934;2023-06-24T00:27:03;99959.25;;;12.92;73.03
77869;BME280;67231;59.144;37.934;2023-06-24T00:29:30;99966.09;;;12.94;73.53
77869;BME280;67231;59.144;37.934;2023-06-24T00:31:56;99962.44;;;12.96;73.02
77869;BME280;67231;59.144;37.934;2023-06-24T00:34:23;99956.75;;;12.99;73.22
77869;BME280;67231;59.144;37.934;2023-06-24T00:36:51;99961.06;;;13.00;73.21
77869;BME280;67231;59.144;37.934;2023-06-24T00:39:19;99954.59;;;13.02;72.70
77869;BME280;67231;59.144;37.934;2023-06-24T00:41:46;99961.56;;;13.03;72.81
77869;BME280;67231;59.144;37.934;2023-06-24T00:44:12;99955.88;;;13.06;72.69
77869;BME280;67231;59.144;37.934;2023-06-24T00:46:39;99958.22;;;13.09;73.12
77869;BME280;67231;59.144;37.934;2023-06-24T00:49:06;99955.91;;;13.15;73.14
77869;BME280;67231;59.144;37.934;2023-06-24T00:51:32;99958.19;;;13.18;72.92
77869;BME280;67231;59.144;37.934;2023-06-24T00:54:02;99964.53;;;13.25;72.63
77869;BME280;67231;59.144;37.934;2023-06-24T00:56:34;99961.50;;;13.28;72.77
77869;BME280;67231;59.144;37.934;2023-06-24T00:59:06;99956.00;;;13.29;73.05
77869;BME280;67231;59.144;37.934;2023-06-24T01:01:34;99955.53;;;13.34;72.74
77869;BME280;67231;59.144;37.934;2023-06-24T01:04:04;99958.34;;;13.41;72.49
77869;BME280;67231;59.144;37.934;2023-06-24T01:06:32;99955.84;;;13.79;71.35
77869;BME280;67231;59.144;37.934;2023-06-24T01:09:00;99945.09;;;14.18;70.03
77869;BME280;67231;59.144;37.934;2023-06-24T01:11:30;99946.75;;;14.19;69.97
77869;BME280;67231;59.144;37.934;2023-06-24T01:13:57;99945.66;;;14.06;70.18
77869;BME280;67231;59.144;37.934;2023-06-24T01:16:44;99956.53;;;14.04;70.39
77869;BME280;67231;59.144;37.934;2023-06-24T01:22:37;99956.00;;;14.09;70.30
77869;BME280;67231;59.144;37.934;2023-06-24T01:33:22;99952.84;;;14.51;68.98
77869;BME280;67231;59.144;37.934;2023-06-24T01:35:51;99948.81;;;14.93;68.31
77869;BME280;67231;59.144;37.934;2023-06-24T01:38:36;99959.16;;;15.86;65.56
77869;BME280;67231;59.144;37.934;2023-06-24T01:41:06;99949.66;;;16.98;62.35
77869;BME280;67231;59.144;37.934;2023-06-24T01:43:34;99956.84;;;17.61;61.01
77869;BME280;67231;59.144;37.934;2023-06-24T01:46:02;99962.59;;;18.06;59.78
77869;BME280;67231;59.144;37.934;2023-06-24T01:48:34;99959.56;;;18.56;58.20
77869;BME280;67231;59.144;37.934;2023-06-24T01:51:06;99964.13;;;18.82;57.90
77869;BME280;67231;59.144;37.934;2023-06-24T01:53:37;99963.03;;;19.30;56.54
77869;BME280;67231;59.144;37.934;2023-06-24T01:56:11;99966.84;;;19.81;55.37
77869;BME280;67231;59.144;37.934;2023-06-24T01:58:38;99973.66;;;20.22;54.78
77869;BME280;67231;59.144;37.934;2023-06-24T02:01:07;99974.06;;;19.87;55.54
77869;BME280;67231;59.144;37.934;2023-06-24T02:03:35;99978.22;;;18.98;56.71
77869;BME280;67231;59.144;37.934;2023-06-24T02:06:04;99978.59;;;18.61;58.09
77869;BME280;67231;59.144;37.934;2023-06-24T02:08:33;99982.75;;;18.90;57.37
77869;BME280;67231;59.144;37.934;2023-06-24T02:11:02;99977.75;;;18.34;58.42
77869;BME280;67231;59.144;37.934;2023-06-24T02:13:31;99981.63;;;17.63;60.03
77869;BME280;67231;59.144;37.934;2023-06-24T02:16:06;99979.66;;;17.08;61.20
77869;BME280;67231;59.144;37.934;2023-06-24T02:18:37;99978.41;;;16.83;61.94
77869;BME280;67231;59.144;37.934;2023-06-24T02:21:05;99979.06;;;16.63;62.25
77869;BME280;67231;59.144;37.934;2023-06-24T02:23:33;99973.66;;;16.85;62.10
77869;BME280;67231;59.144;37.934;2023-06-24T02:26:05;99974.50;;;17.42;60.52
77869;BME280;67231;59.144;37.934;2023-06-24T02:28:33;99983.72;;;17.74;59.66
77869;BME280;67231;59.144;37.934;2023-06-24T02:31:04;99981.81;;;18.16;58.58
77869;BME280;67231;59.144;37.934;2023-06-24T02:33:32;99990.44;;;17.92;59.16
77869;BME280;67231;59.144;37.934;2023-06-24T02:35:59;99983.41;;;17.49;60.56
77869;BME280;67231;59.144;37.934;2023-06-24T02:38:25;99984.47;;;17.55;59.84
77869;BME280;67231;59.144;37.934;2023-06-24T02:40:52;99978.53;;;18.28;58.30
77869;BME280;67231;59.144;37.934;2023-06-24T02:43:18;99984.00;;;18.81;56.90
77869;BME280;67231;59.144;37.934;2023-06-24T02:45:47;99984.09;;;19.60;55.15
77869;BME280;67231;59.144;37.934;2023-06-24T02:48:15;99983.25;;;20.75;52.98
77869;BME280;67231;59.144;37.934;2023-06-24T02:50:44;99980.06;;;21.84;51.17
77869;BME280;67231;59.144;37.934;2023-06-24T02:53:12;99992.22;;;21.75;51.18
77869;BME280;67231;59.144;37.934;2023-06-24T02:55:40;99989.66;;;21.06;52.44
77869;BME280;67231;59.144;37.934;2023-06-24T02:58:08;99993.38;;;20.80;52.84
77869;BME280;67231;59.144;37.934;2023-06-24T03:00:55;99986.06;;;21.86;50.91
77869;BME280;67231;59.144;37.934;2023-06-24T03:03:46;99993.59;;;23.11;48.29
77869;BME280;67231;59.144;37.934;2023-06-24T03:06:18;99988.72;;;23.48;47.44
77869;BME280;67231;59.144;37.934;2023-06-24T03:08:45;99997.69;;;23.37;47.47
77869;BME280;67231;59.144;37.934;2023-06-24T03:11:13;99997.13;;;22.45;48.76
77869;BME280;67231;59.144;37.934;2023-06-24T03:13:43;100001.13;;;23.32;47.33
77869;BME280;67231;59.144;37.934;2023-06-24T03:16:26;100002.28;;;24.00;46.28
77869;BME280;67231;59.144;37.934;2023-06-24T03:19:01;99994.47;;;24.16;45.94
77869;BME280;67231;59.144;37.934;2023-06-24T03:21:28;100009.44;;;24.64;45.08
77869;BME280;67231;59.144;37.934;2023-06-24T03:24:00;100002.84;;;24.94;44.55
77869;BME280;67231;59.144;37.934;2023-06-24T03:26:35;100011.53;;;24.45;45.61
77869;BME280;67231;59.144;37.934;2023-06-24T03:29:02;100009.94;;;23.51;46.85
77869;BME280;67231;59.144;37.934;2023-06-24T03:31:30;100006.41;;;22.38;48.62
77869;BME280;67231;59.144;37.934;2023-06-24T03:33:57;100003.88;;;21.13;51.33
77869;BME280;67231;59.144;37.934;2023-06-24T03:36:25;100002.44;;;20.28;53.19
77869;BME280;67231;59.144;37.934;2023-06-24T03:38:52;100008.03;;;19.75;54.29
77869;BME280;67231;59.144;37.934;2023-06-24T03:41:20;100002.16;;;19.39;55.22
77869;BME280;67231;59.144;37.934;2023-06-24T03:43:46;100011.09;;;19.20;55.69
77869;BME280;67231;59.144;37.934;2023-06-24T03:46:13;100001.78;;;19.02;56.13
77869;BME280;67231;59.144;37.934;2023-06-24T03:48:40;100005.94;;;18.91;56.49
77869;BME280;67231;59.144;37.934;2023-06-24T03:51:07;100011.09;;;18.86;56.71
77869;BME280;67231;59.144;37.934;2023-06-24T03:53:33;100019.97;;;18.80;56.84
77869;BME280;67231;59.144;37.934;2023-06-24T03:56:00;100013.75;;;18.73;57.19
77869;BME280;67231;59.144;37.934;2023-06-24T03:58:27;100005.06;;;18.71;56.90
77869;BME280;67231;59.144;37.934;2023-06-24T04:00:54;100018.28;;;18.66;56.88
77869;BME280;67231;59.144;37.934;2023-06-24T04:03:23;100022.22;;;18.56;57.27
77869;BME280;67231;59.144;37.934;2023-06-24T04:05:54;100011.25;;;18.51;57.18
77869;BME280;67231;59.144;37.934;2023-06-24T04:08:22;100015.81;;;18.64;57.21
77869;BME280;67231;59.144;37.934;2023-06-24T04:10:49;100010.88;;;18.81;57.01
77869;BME280;67231;59.144;37.934;2023-06-24T04:13:15;100007.53;;;18.79;57.18
77869;BME280;67231;59.144;37.934;2023-06-24T04:15:42;100010.47;;;18.84;57.30
77869;BME280;67231;59.144;37.934;2023-06-24T04:18:08;100009.84;;;18.96;56.95
77869;BME280;67231;59.144;37.934;2023-06-24T04:20:35;100012.97;;;19.06;56.54
77869;BME280;67231;59.144;37.934;2023-06-24T04:23:06;100018.09;;;19.21;56.26
77869;BME280;67231;59.144;37.934;2023-06-24T04:25:35;100018.72;;;19.23;56.63
77869;BME280;67231;59.144;37.934;2023-06-24T04:28:03;100016.03;;;19.29;56.64
77869;BME280;67231;59.144;37.934;2023-06-24T04:30:32;100017.03;;;19.42;56.95
77869;BME280;67231;59.144;37.934;2023-06-24T04:32:58;100022.41;;;19.55;56.64
77869;BME280;67231;59.144;37.934;2023-06-24T04:35:25;100013.03;;;19.71;55.99
77869;BME280;67231;59.144;37.934;2023-06-24T04:37:51;100024.41;;;19.80;55.83
77869;BME280;67231;59.144;37.934;2023-06-24T04:40:18;100023.91;;;20.03;55.52
77869;BME280;67231;59.144;37.934;2023-06-24T04:42:45;100034.41;;;20.18;55.08
77869;BME280;67231;59.144;37.934;2023-06-24T04:45:12;100029.19;;;20.23;54.78
77869;BME280;67231;59.144;37.934;2023-06-24T04:47:39;100035.56;;;20.74;53.66
77869;BME280;67231;59.144;37.934;2023-06-24T04:50:05;100034.03;;;21.72;52.10
77869;BME280;67231;59.144;37.934;2023-06-24T04:52:32;100035.84;;;22.46;50.85
77869;BME280;67231;59.144;37.934;2023-06-24T04:54:59;100036.66;;;22.58;50.53
77869;BME280;67231;59.144;37.934;2023-06-24T04:57:29;100038.34;;;22.71;50.04
77869;BME280;67231;59.144;37.934;2023-06-24T04:59:57;100041.22;;;23.00;49.10
77869;BME280;67231;59.144;37.934;2023-06-24T05:02:24;100044.06;;;23.76;48.14
77869;BME280;67231;59.144;37.934;2023-06-24T05:04:52;100043.84;;;24.18;46.73
77869;BME280;67231;59.144;37.934;2023-06-24T05:07:19;100044.13;;;24.62;46.30
77869;BME280;67231;59.144;37.934;2023-06-24T05:09:49;100038.00;;;24.84;45.40
77869;BME280;67231;59.144;37.934;2023-06-24T05:12:17;100048.13;;;25.39;44.74
77869;BME280;67231;59.144;37.934;2023-06-24T05:14:43;100046.00;;;26.30;43.02
77869;BME280;67231;59.144;37.934;2023-06-24T05:17:10;100049.63;;;27.33;41.55
77869;BME280;67231;59.144;37.934;2023-06-24T05:19:36;100052.91;;;28.82;39.15
77869;BME280;67231;59.144;37.934;2023-06-24T05:22:03;100062.97;;;29.43;37.87
77869;BME280;67231;59.144;37.934;2023-06-24T05:24:29;100059.41;;;29.37;37.95
77869;BME280;67231;59.144;37.934;2023-06-24T05:26:56;100057.13;;;29.75;37.26
77869;BME280;67231;59.144;37.934;2023-06-24T05:29:22;100050.78;;;30.01;36.66
77869;BME280;67231;59.144;37.934;2023-06-24T05:31:49;100054.22;;;30.22;35.70
77869;BME280;67231;59.144;37.934;2023-06-24T05:34:15;100056.16;;;30.61;35.18
77869;BME280;67231;59.144;37.934;2023-06-24T05:36:42;100050.16;;;31.28;34.34
77869;BME280;67231;59.144;37.934;2023-06-24T05:39:08;100060.03;;;31.23;33.65
77869;BME280;67231;59.144;37.934;2023-06-24T05:41:35;100050.25;;;30.83;34.20
77869;BME280;67231;59.144;37.934;2023-06-24T05:44:08;100051.25;;;30.63;33.97
77869;BME280;67231;59.144;37.934;2023-06-24T05:46:37;100058.34;;;31.57;33.04
77869;BME280;67231;59.144;37.934;2023-06-24T05:49:03;100057.25;;;32.44;31.96
77869;BME280;67231;59.144;37.934;2023-06-24T05:51:29;100056.75;;;33.08;31.60
77869;BME280;67231;59.144;37.934;2023-06-24T05:53:56;100065.81;;;33.42;30.86
77869;BME280;67231;59.144;37.934;2023-06-24T05:56:22;100059.66;;;33.78;29.64
77869;BME280;67231;59.144;37.934;2023-06-24T05:58:49;100058.38;;;34.11;29.08
77869;BME280;67231;59.144;37.934;2023-06-24T06:01:15;100062.97;;;34.75;28.20
77869;BME280;67231;59.144;37.934;2023-06-24T06:03:41;100066.09;;;35.05;27.68
77869;BME280;67231;59.144;37.934;2023-06-24T06:06:07;100069.31;;;35.61;27.10
77869;BME280;67231;59.144;37.934;2023-06-24T06:08:34;100061.09;;;35.38;26.55
77869;BME280;67231;59.144;37.934;2023-06-24T06:11:01;100059.50;;;35.15;26.50
77869;BME280;67231;59.144;37.934;2023-06-24T06:13:29;100066.63;;;34.84;26.47
77869;BME280;67231;59.144;37.934;2023-06-24T06:15:56;100060.44;;;34.42;26.22
77869;BME280;67231;59.144;37.934;2023-06-24T06:18:26;100065.78;;;34.11;26.71
77869;BME280;67231;59.144;37.934;2023-06-24T06:20:52;100064.63;;;33.89;26.36
77869;BME280;67231;59.144;37.934;2023-06-24T06:23:20;100056.06;;;33.63;26.16
77869;BME280;67231;59.144;37.934;2023-06-24T06:25:47;100053.72;;;33.84;25.95
77869;BME280;67231;59.144;37.934;2023-06-24T06:28:13;100052.88;;;33.98;26.13
77869;BME280;67231;59.144;37.934;2023-06-24T06:30:39;100064.78;;;34.21;25.83
77869;BME280;67231;59.144;37.934;2023-06-24T06:33:05;100063.03;;;34.11;26.16
77869;BME280;67231;59.144;37.934;2023-06-24T06:35:32;100050.47;;;34.19;25.49
77869;BME280;67231;59.144;37.934;2023-06-24T06:37:58;100057.81;;;34.37;25.36
77869;BME280;67231;59.144;37.934;2023-06-24T06:40:24;100055.63;;;34.11;25.69
77869;BME280;67231;59.144;37.934;2023-06-24T06:42:50;100058.44;;;34.20;25.92
77869;BME280;67231;59.144;37.934;2023-06-24T06:45:20;100059.53;;;33.83;25.92
77869;BME280;67231;59.144;37.934;2023-06-24T06:47:47;100050.63;;;33.58;26.00
77869;BME280;67231;59.144;37.934;2023-06-24T06:50:13;100057.78;;;33.87;26.20
77869;BME280;67231;59.144;37.934;2023-06-24T06:52:40;100054.53;;;33.85;26.13
77869;BME280;67231;59.144;37.934;2023-06-24T06:55:06;100059.84;;;33.95;25.92
77869;BME280;67231;59.144;37.934;2023-06-24T06:57:32;100057.84;;;34.09;25.84
77869;BME280;67231;59.144;37.934;2023-06-24T06:59:59;100060.41;;;33.36;25.63
77869;BME280;67231;59.144;37.934;2023-06-24T07:02:25;100058.81;;;33.02;26.21
77869;BME280;67231;59.144;37.934;2023-06-24T07:04:51;100059.38;;;33.18;26.09
77869;BME280;67231;59.144;37.934;2023-06-24T07:07:17;100059.59;;;33.22;25.75
77869;BME280;67231;59.144;37.934;2023-06-24T07:09:44;100053.75;;;32.77;26.44
77869;BME280;67231;59.144;37.934;2023-06-24T07:12:12;100060.53;;;33.59;26.50
77869;BME280;67231;59.144;37.934;2023-06-24T07:14:39;100060.59;;;34.09;25.78
77869;BME280;67231;59.144;37.934;2023-06-24T07:17:07;100064.25;;;34.19;25.77
77869;BME280;67231;59.144;37.934;2023-06-24T07:19:33;100058.25;;;34.17;26.00
77869;BME280;67231;59.144;37.934;2023-06-24T07:22:00;100069.66;;;34.24;26.02
77869;BME280;67231;59.144;37.934;2023-06-24T07:24:26;100067.03;;;35.00;25.66
77869;BME280;67231;59.144;37.934;2023-06-24T07:26:52;100065.00;;;35.15;25.53
77869;BME280;67231;59.144;37.934;2023-06-24T07:29:18;100066.00;;;35.50;24.78
77869;BME280;67231;59.144;37.934;2023-06-24T07:31:44;100068.19;;;35.62;25.04
77869;BME280;67231;59.144;37.934;2023-06-24T07:34:11;100067.16;;;36.07;23.73
77869;BME280;67231;59.144;37.934;2023-06-24T07:36:37;100066.03;;;36.08;23.43
77869;BME280;67231;59.144;37.934;2023-06-24T07:39:03;100063.56;;;35.80;23.87
77869;BME280;67231;59.144;37.934;2023-06-24T07:41:29;100074.72;;;33.94;25.54
77869;BME280;67231;59.144;37.934;2023-06-24T07:43:55;100056.44;;;33.43;26.28
77869;BME280;67231;59.144;37.934;2023-06-24T07:46:22;100064.63;;;34.03;25.82
77869;BME280;67231;59.144;37.934;2023-06-24T07:48:48;100069.06;;;34.86;24.77
77869;BME280;67231;59.144;37.934;2023-06-24T07:51:14;100064.34;;;34.64;24.84
77869;BME280;67231;59.144;37.934;2023-06-24T07:53:40;100066.22;;;34.55;25.11
77869;BME280;67231;59.144;37.934;2023-06-24T07:56:07;100055.31;;;34.50;25.19
77869;BME280;67231;59.144;37.934;2023-06-24T07:58:34;100059.50;;;33.97;25.65
77869;BME280;67231;59.144;37.934;2023-06-24T08:01:00;100053.66;;;32.82;26.27
77869;BME280;67231;59.144;37.934;2023-06-24T08:03:27;100064.22;;;32.37;27.14
77869;BME280;67231;59.144;37.934;2023-06-24T08:05:54;100053.44;;;31.78;27.84
77869;BME280;67231;59.144;37.934;2023-06-24T08:08:20;100057.16;;;31.39;28.53
77869;BME280;67231;59.144;37.934;2023-06-24T08:10:46;100049.00;;;31.82;27.85
77869;BME280;67231;59.144;37.934;2023-06-24T08:13:13;100054.34;;;32.17;27.63
77869;BME280;67231;59.144;37.934;2023-06-24T08:15:40;100058.72;;;32.75;26.70
77869;BME280;67231;59.144;37.934;2023-06-24T08:18:06;100062.25;;;33.08;26.46
77869;BME280;67231;59.144;37.934;2023-06-24T08:20:32;100060.09;;;33.24;26.62
77869;BME280;67231;59.144;37.934;2023-06-24T08:22:58;100066.13;;;32.74;26.93
77869;BME280;67231;59.144;37.934;2023-06-24T08:25:25;100058.81;;;31.40;27.72
77869;BME280;67231;59.144;37.934;2023-06-24T08:27:51;100062.41;;;30.22;29.10
77869;BME280;67231;59.144;37.934;2023-06-24T08:30:18;100053.41;;;29.40;29.91
77869;BME280;67231;59.144;37.934;2023-06-24T08:32:44;100058.91;;;28.79;30.91
77869;BME280;67231;59.144;37.934;2023-06-24T08:35:10;100062.66;;;28.47;31.21
77869;BME280;67231;59.144;37.934;2023-06-24T08:37:37;100059.88;;;28.21;31.83
77869;BME280;67231;59.144;37.934;2023-06-24T08:40:04;100047.69;;;27.76;31.93
77869;BME280;67231;59.144;37.934;2023-06-24T08:42:31;100057.34;;;27.46;32.45
77869;BME280;67231;59.144;37.934;2023-06-24T08:44:58;100057.13;;;27.20;32.78
77869;BME280;67231;59.144;37.934;2023-06-24T08:47:24;100057.94;;;26.83;33.91
77869;BME280;67231;59.144;37.934;2023-06-24T08:50:03;100057.03;;;26.45;34.32
77869;BME280;67231;59.144;37.934;2023-06-24T08:52:35;100055.13;;;26.19;35.00
77869;BME280;67231;59.144;37.934;2023-06-24T08:55:03;100049.28;;;26.10;35.10
77869;BME280;67231;59.144;37.934;2023-06-24T08:57:31;100057.59;;;25.98;35.28
77869;BME280;67231;59.144;37.934;2023-06-24T08:59:57;100060.22;;;25.93;34.97
77869;BME280;67231;59.144;37.934;2023-06-24T09:02:24;100064.69;;;25.99;35.48
77869;BME280;67231;59.144;37.934;2023-06-24T09:04:53;100064.00;;;25.92;35.97
77869;BME280;67231;59.144;37.934;2023-06-24T09:07:26;100073.50;;;25.89;35.65
77869;BME280;67231;59.144;37.934;2023-06-24T09:09:54;100060.22;;;25.93;36.34
77869;BME280;67231;59.144;37.934;2023-06-24T09:12:23;100067.97;;;26.01;35.57
77869;BME280;67231;59.144;37.934;2023-06-24T09:14:50;100068.59;;;26.08;35.65
77869;BME280;67231;59.144;37.934;2023-06-24T09:17:17;100056.19;;;26.17;35.77
77869;BME280;67231;59.144;37.934;2023-06-24T09:19:45;100064.41;;;26.23;35.35
77869;BME280;67231;59.144;37.934;2023-06-24T09:22:11;100066.03;;;26.24;35.81
77869;BME280;67231;59.144;37.934;2023-06-24T09:24:47;100071.28;;;26.30;35.37
77869;BME280;67231;59.144;37.934;2023-06-24T09:27:16;100068.78;;;26.24;35.19
77869;BME280;67231;59.144;37.934;2023-06-24T09:29:43;100066.31;;;26.00;35.71
77869;BME280;67231;59.144;37.934;2023-06-24T09:32:10;100066.22;;;25.95;36.13
77869;BME280;67231;59.144;37.934;2023-06-24T09:34:36;100075.16;;;26.12;35.73
77869;BME280;67231;59.144;37.934;2023-06-24T09:37:02;100068.81;;;26.29;35.86
77869;BME280;67231;59.144;37.934;2023-06-24T09:39:35;100060.84;;;26.44;35.68
77869;BME280;67231;59.144;37.934;2023-06-24T09:42:02;100069.56;;;26.46;36.04
77869;BME280;67231;59.144;37.934;2023-06-24T09:44:30;100068.63;;;26.63;35.53
77869;BME280;67231;59.144;37.934;2023-06-24T09:46:57;100074.28;;;26.83;35.51
77869;BME280;67231;59.144;37.934;2023-06-24T09:49:23;100066.78;;;26.96;34.92
77869;BME280;67231;59.144;37.934;2023-06-24T09:51:59;100067.97;;;27.10;34.78
77869;BME280;67231;59.144;37.934;2023-06-24T09:54:28;100068.78;;;27.11;35.06
77869;BME280;67231;59.144;37.934;2023-06-24T09:56:59;100064.25;;;27.21;34.91
77869;BME280;67231;59.144;37.934;2023-06-24T09:59:27;100063.88;;;27.45;34.44
77869;BME280;67231;59.144;37.934;2023-06-24T10:01:55;100064.72;;;27.51;34.04
77869;BME280;67231;59.144;37.934;2023-06-24T10:04:23;100073.75;;;27.56;34.12
77869;BME280;67231;59.144;37.934;2023-06-24T10:06:50;100064.81;;;27.29;33.95
77869;BME280;67231;59.144;37.934;2023-06-24T10:09:17;100066.03;;;27.05;34.20
77869;BME280;67231;59.144;37.934;2023-06-24T10:11:46;100064.09;;;27.01;34.76
77869;BME280;67231;59.144;37.934;2023-06-24T10:14:15;100066.84;;;27.06;34.87
77869;BME280;67231;59.144;37.934;2023-06-24T10:16:42;100058.19;;;27.14;34.25
77869;BME280;67231;59.144;37.934;2023-06-24T10:19:09;100064.72;;;27.13;34.27
77869;BME280;67231;59.144;37.934;2023-06-24T10:21:45;100064.19;;;27.11;33.86
77869;BME280;67231;59.144;37.934;2023-06-24T10:24:35;100067.88;;;27.00;34.56
77869;BME280;67231;59.144;37.934;2023-06-24T10:27:03;100057.13;;;26.83;34.66
77869;BME280;67231;59.144;37.934;2023-06-24T10:29:37;100063.00;;;26.42;35.07
77869;BME280;67231;59.144;37.934;2023-06-24T10:32:10;100065.59;;;26.32;34.99
77869;BME280;67231;59.144;37.934;2023-06-24T10:34:43;100059.69;;;26.40;35.29
77869;BME280;67231;59.144;37.934;2023-06-24T10:37:18;100058.28;;;26.32;35.18
77869;BME280;67231;59.144;37.934;2023-06-24T10:39:52;100051.84;;;26.16;35.22
77869;BME280;67231;59.144;37.934;2023-06-24T10:44:50;100053.47;;;26.45;35.91
77869;BME280;67231;59.144;37.934;2023-06-24T10:47:18;100063.09;;;26.52;34.61
77869;BME280;67231;59.144;37.934;2023-06-24T10:49:45;100057.66;;;26.52;34.45
77869;BME280;67231;59.144;37.934;2023-06-24T10:52:12;100064.22;;;26.57;34.77
77869;BME280;67231;59.144;37.934;2023-06-24T10:54:40;100066.41;;;26.60;34.66
77869;BME280;67231;59.144;37.934;2023-06-24T10:57:07;100055.47;;;26.54;34.14
77869;BME280;67231;59.144;37.934;2023-06-24T11:02:14;100055.00;;;26.35;34.20
77869;BME280;67231;59.144;37.934;2023-06-24T11:04:56;100053.84;;;26.26;34.55
77869;BME280;67231;59.144;37.934;2023-06-24T11:07:25;100052.25;;;26.30;34.45
77869;BME280;67231;59.144;37.934;2023-06-24T11:09:54;100049.81;;;26.34;35.15
77869;BME280;67231;59.144;37.934;2023-06-24T11:12:25;100044.47;;;26.39;35.44
77869;BME280;67231;59.144;37.934;2023-06-24T11:14:56;100054.44;;;26.61;35.10
77869;BME280;67231;59.144;37.934;2023-06-24T11:17:24;100046.25;;;26.56;35.52
77869;BME280;67231;59.144;37.934;2023-06-24T11:19:55;100052.63;;;26.39;35.47
77869;BME280;67231;59.144;37.934;2023-06-24T11:22:22;100047.72;;;26.14;35.98
77869;BME280;67231;59.144;37.934;2023-06-24T11:24:49;100046.25;;;26.06;36.58
77869;BME280;67231;59.144;37.934;2023-06-24T11:27:16;100054.28;;;25.96;36.62
77869;BME280;67231;59.144;37.934;2023-06-24T11:29:44;100037.09;;;26.12;37.22
77869;BME280;67231;59.144;37.934;2023-06-24T11:32:11;100040.63;;;26.13;37.16
77869;BME280;67231;59.144;37.934;2023-06-24T11:34:38;100045.13;;;25.80;37.99
77869;BME280;67231;59.144;37.934;2023-06-24T11:37:11;100046.63;;;25.93;37.91
77869;BME280;67231;59.144;37.934;2023-06-24T11:39:38;100034.31;;;26.07;38.23
77869;BME280;67231;59.144;37.934;2023-06-24T11:42:06;100040.88;;;26.11;38.06
77869;BME280;67231;59.144;37.934;2023-06-24T11:44:34;100039.06;;;26.17;38.19
77869;BME280;67231;59.144;37.934;2023-06-24T11:47:07;100033.31;;;26.13;37.64
77869;BME280;67231;59.144;37.934;2023-06-24T11:49:55;100040.28;;;26.04;38.07
77869;BME280;67231;59.144;37.934;2023-06-24T11:52:47;100042.16;;;25.81;38.35
77869;BME280;67231;59.144;37.934;2023-06-24T11:55:20;100034.75;;;25.77;38.67
77869;BME280;67231;59.144;37.934;2023-06-24T12:00:28;100034.28;;;25.63;38.30
77869;BME280;67231;59.144;37.934;2023-06-24T12:02:58;100034.47;;;25.56;38.96
77869;BME280;67231;59.144;37.934;2023-06-24T12:05:27;100041.06;;;25.60;39.07
77869;BME280;67231;59.144;37.934;2023-06-24T12:08:02;100040.47;;;25.58;39.21
77869;BME280;67231;59.144;37.934;2023-06-24T12:10:32;100038.41;;;25.66;38.59
77869;BME280;67231;59.144;37.934;2023-06-24T12:13:00;100034.34;;;25.68;38.29
77869;BME280;67231;59.144;37.934;2023-06-24T12:15:30;100027.28;;;25.89;39.07
77869;BME280;67231;59.144;37.934;2023-06-24T12:17:57;100028.88;;;25.85;38.20
77869;BME280;67231;59.144;37.934;2023-06-24T12:20:25;100030.97;;;25.78;39.05
77869;BME280;67231;59.144;37.934;2023-06-24T12:22:51;100028.22;;;25.56;38.99
77869;BME280;67231;59.144;37.934;2023-06-24T12:25:18;100030.72;;;25.40;39.60
77869;BME280;67231;59.144;37.934;2023-06-24T12:27:45;100036.97;;;25.24;39.19
77869;BME280;67231;59.144;37.934;2023-06-24T12:30:12;100024.25;;;25.07;39.41
77869;BME280;67231;59.144;37.934;2023-06-24T12:32:39;100025.50;;;25.00;39.96
77869;BME280;67231;59.144;37.934;2023-06-24T12:35:06;100018.66;;;24.97;39.45
77869;BME280;67231;59.144;37.934;2023-06-24T12:37:35;100025.81;;;24.86;40.09
77869;BME280;67231;59.144;37.934;2023-06-24T12:40:05;100017.59;;;24.81;39.92
77869;BME280;67231;59.144;37.934;2023-06-24T12:42:32;100021.63;;;24.79;40.00
77869;BME280;67231;59.144;37.934;2023-06-24T12:44:59;100018.56;;;24.75;39.72
77869;BME280;67231;59.144;37.934;2023-06-24T12:47:28;100017.00;;;24.62;39.66
77869;BME280;67231;59.144;37.934;2023-06-24T12:49:54;100011.13;;;24.53;40.18
77869;BME280;67231;59.144;37.934;2023-06-24T12:52:20;100013.19;;;24.46;40.39
77869;BME280;67231;59.144;37.934;2023-06-24T12:54:48;100027.88;;;24.33;39.88
77869;BME280;67231;59.144;37.934;2023-06-24T12:57:15;100017.03;;;24.33;39.61
77869;BME280;67231;59.144;37.934;2023-06-24T12:59:42;100034.84;;;24.29;40.02
77869;BME280;67231;59.144;37.934;2023-06-24T13:02:08;100022.81;;;24.25;40.84
77869;BME280;67231;59.144;37.934;2023-06-24T13:04:34;100026.53;;;24.19;41.08
77869;BME280;67231;59.144;37.934;2023-06-24T13:07:00;100028.19;;;24.08;41.24
77869;BME280;67231;59.144;37.934;2023-06-24T13:09:27;100029.75;;;24.04;41.37